sensor_id;sensor_type;location;lat;lon;timestamp;P1;durP1;ratioP1;P2;durP2;ratioP2
65996;SDS011;52765;52.258;21.052;2023-03-01T00:01:25;56.08;;;22.92;;
65996;SDS011;52765;52.258;21.052;2023-03-01T00:03:55;56.53;;;22.33;;
65996;SDS011;52765;52.258;21.052;2023-03-01T00:06:22;56.92;;;23.67;;
65996;SDS011;52765;52.258;21.052;2023-03-01T00:08:48;56.22;;;24.55;;
65996;SDS011;52765;52.258;21.052;2023-03-01T00:13:39;55.60;;;24.67;;
65996;SDS011;52765;52.258;21.052;2023-03-01T00:16:07;63.03;;;25.50;;
65996;SDS011;52765;52.258;21.052;2023-03-01T00:18:34;60.08;;;23.08;;
65996;SDS011;52765;52.258;21.052;2023-03-01T00:21:00;62.40;;;23.02;;
65996;SDS011;52765;52.258;21.052;2023-03-01T00:23:25;58.83;;;24.40;;
65996;SDS011;52765;52.258;21.052;2023-03-01T00:25:51;55.38;;;24.65;;
65996;SDS011;52765;52.258;21.052;2023-03-01T00:28:17;56.17;;;23.55;;
65996;SDS011;52765;52.258;21.052;2023-03-01T00:30:43;60.60;;;23.45;;
65996;SDS011;52765;52.258;21.052;2023-03-01T00:33:08;57.67;;;23.73;;
65996;SDS011;52765;52.258;21.052;2023-03-01T00:35:34;63.58;;;24.52;;
65996;SDS011;52765;52.258;21.052;2023-03-01T00:38:01;52.28;;;23.63;;
65996;SDS011;52765;52.258;21.052;2023-03-01T00:40:27;53.63;;;23.08;;
65996;SDS011;52765;52.258;21.052;2023-03-01T00:42:53;61.65;;;25.33;;
65996;SDS011;52765;52.258;21.052;2023-03-01T00:45:20;62.08;;;25.63;;
65996;SDS011;52765;52.258;21.052;2023-03-01T00:47:46;57.45;;;25.25;;
65996;SDS011;52765;52.258;21.052;2023-03-01T00:50:12;61.10;;;24.90;;
65996;SDS011;52765;52.258;21.052;2023-03-01T00:52:38;58.55;;;24.63;;
65996;SDS011;52765;52.258;21.052;2023-03-01T00:55:03;66.60;;;25.80;;
65996;SDS011;52765;52.258;21.052;2023-03-01T00:57:31;63.63;;;24.67;;
65996;SDS011;52765;52.258;21.052;2023-03-01T00:59:58;61.25;;;25.05;;
65996;SDS011;52765;52.258;21.052;2023-03-01T01:02:24;61.65;;;25.48;;
65996;SDS011;52765;52.258;21.052;2023-03-01T01:04:49;70.30;;;26.52;;
65996;SDS011;52765;52.258;21.052;2023-03-01T01:07:15;60.13;;;25.27;;
65996;SDS011;52765;52.258;21.052;2023-03-01T01:09:41;67.20;;;25.90;;
65996;SDS011;52765;52.258;21.052;2023-03-01T01:12:06;57.47;;;24.70;;
65996;SDS011;52765;52.258;21.052;2023-03-01T01:14:32;66.97;;;26.77;;
65996;SDS011;52765;52.258;21.052;2023-03-01T01:16:58;62.50;;;25.42;;
65996;SDS011;52765;52.258;21.052;2023-03-01T01:19:24;59.58;;;25.88;;
65996;SDS011;52765;52.258;21.052;2023-03-01T01:21:49;66.45;;;27.40;;
65996;SDS011;52765;52.258;21.052;2023-03-01T01:24:15;64.38;;;26.08;;
65996;SDS011;52765;52.258;21.052;2023-03-01T01:26:41;69.30;;;26.48;;
65996;SDS011;52765;52.258;21.052;2023-03-01T01:29:07;66.22;;;26.05;;
65996;SDS011;52765;52.258;21.052;2023-03-01T01:31:35;65.90;;;27.25;;
65996;SDS011;52765;52.258;21.052;2023-03-01T01:34:01;63.25;;;26.92;;
65996;SDS011;52765;52.258;21.052;2023-03-01T01:36:29;67.32;;;26.15;;
65996;SDS011;52765;52.258;21.052;2023-03-01T01:38:55;66.63;;;27.08;;
65996;SDS011;52765;52.258;21.052;2023-03-01T01:41:21;57.90;;;25.55;;
65996;SDS011;52765;52.258;21.052;2023-03-01T01:43:49;62.72;;;26.05;;
65996;SDS011;52765;52.258;21.052;2023-03-01T01:46:44;56.72;;;23.90;;
65996;SDS011;52765;52.258;21.052;2023-03-01T01:49:56;68.53;;;26.83;;
65996;SDS011;52765;52.258;21.052;2023-03-01T01:54:48;63.08;;;26.42;;
65996;SDS011;52765;52.258;21.052;2023-03-01T01:57:25;63.03;;;25.73;;
65996;SDS011;52765;52.258;21.052;2023-03-01T01:59:55;62.67;;;26.50;;
65996;SDS011;52765;52.258;21.052;2023-03-01T02:02:25;64.63;;;26.40;;
65996;SDS011;52765;52.258;21.052;2023-03-01T02:04:52;66.65;;;26.35;;
65996;SDS011;52765;52.258;21.052;2023-03-01T02:07:28;63.90;;;24.73;;
65996;SDS011;52765;52.258;21.052;2023-03-01T02:09:55;66.07;;;25.75;;
65996;SDS011;52765;52.258;21.052;2023-03-01T02:12:21;63.10;;;24.60;;
65996;SDS011;52765;52.258;21.052;2023-03-01T02:14:50;62.25;;;25.45;;
65996;SDS011;52765;52.258;21.052;2023-03-01T02:17:16;67.10;;;25.30;;
65996;SDS011;52765;52.258;21.052;2023-03-01T02:22:35;59.03;;;27.20;;
65996;SDS011;52765;52.258;21.052;2023-03-01T02:30:41;57.95;;;25.15;;
65996;SDS011;52765;52.258;21.052;2023-03-01T02:33:27;59.45;;;24.02;;
65996;SDS011;52765;52.258;21.052;2023-03-01T02:35:58;66.95;;;25.83;;
65996;SDS011;52765;52.258;21.052;2023-03-01T02:38:26;59.05;;;25.48;;
65996;SDS011;52765;52.258;21.052;2023-03-01T02:40:53;61.63;;;24.75;;
65996;SDS011;52765;52.258;21.052;2023-03-01T02:43:20;59.45;;;24.38;;
65996;SDS011;52765;52.258;21.052;2023-03-01T02:45:51;62.95;;;26.30;;
65996;SDS011;52765;52.258;21.052;2023-03-01T02:48:18;60.00;;;24.77;;
65996;SDS011;52765;52.258;21.052;2023-03-01T02:50:47;57.00;;;24.63;;
65996;SDS011;52765;52.258;21.052;2023-03-01T02:56:02;62.30;;;26.05;;
65996;SDS011;52765;52.258;21.052;2023-03-01T02:58:27;62.97;;;25.05;;
65996;SDS011;52765;52.258;21.052;2023-03-01T03:00:53;59.75;;;24.30;;
65996;SDS011;52765;52.258;21.052;2023-03-01T03:03:19;62.38;;;24.75;;
65996;SDS011;52765;52.258;21.052;2023-03-01T03:05:47;63.70;;;25.42;;
65996;SDS011;52765;52.258;21.052;2023-03-01T03:08:13;61.65;;;24.58;;
65996;SDS011;52765;52.258;21.052;2023-03-01T03:10:41;65.25;;;25.73;;
65996;SDS011;52765;52.258;21.052;2023-03-01T03:13:09;67.13;;;25.42;;
65996;SDS011;52765;52.258;21.052;2023-03-01T03:15:36;58.67;;;23.55;;
65996;SDS011;52765;52.258;21.052;2023-03-01T03:18:02;55.67;;;23.13;;
65996;SDS011;52765;52.258;21.052;2023-03-01T03:20:30;57.45;;;22.77;;
65996;SDS011;52765;52.258;21.052;2023-03-01T03:22:57;59.03;;;23.52;;
65996;SDS011;52765;52.258;21.052;2023-03-01T03:25:23;57.95;;;22.60;;
65996;SDS011;52765;52.258;21.052;2023-03-01T03:27:50;57.10;;;23.65;;
65996;SDS011;52765;52.258;21.052;2023-03-01T03:30:22;56.70;;;23.20;;
65996;SDS011;52765;52.258;21.052;2023-03-01T03:32:52;54.50;;;23.50;;
65996;SDS011;52765;52.258;21.052;2023-03-01T03:35:22;60.38;;;24.90;;
65996;SDS011;52765;52.258;21.052;2023-03-01T03:37:50;53.13;;;23.00;;
65996;SDS011;52765;52.258;21.052;2023-03-01T03:40:32;62.33;;;26.85;;
65996;SDS011;52765;52.258;21.052;2023-03-01T03:43:05;63.63;;;24.95;;
65996;SDS011;52765;52.258;21.052;2023-03-01T03:45:35;66.15;;;27.02;;
65996;SDS011;52765;52.258;21.052;2023-03-01T03:48:01;67.82;;;26.27;;
65996;SDS011;52765;52.258;21.052;2023-03-01T03:50:28;66.07;;;27.63;;
65996;SDS011;52765;52.258;21.052;2023-03-01T03:52:54;64.18;;;25.50;;
65996;SDS011;52765;52.258;21.052;2023-03-01T03:55:19;63.28;;;27.25;;
65996;SDS011;52765;52.258;21.052;2023-03-01T03:57:46;65.20;;;25.88;;
65996;SDS011;52765;52.258;21.052;2023-03-01T04:00:17;63.47;;;26.38;;
65996;SDS011;52765;52.258;21.052;2023-03-01T04:02:44;63.45;;;24.98;;
65996;SDS011;52765;52.258;21.052;2023-03-01T04:05:13;70.55;;;26.33;;
65996;SDS011;52765;52.258;21.052;2023-03-01T04:07:41;64.25;;;25.05;;
65996;SDS011;52765;52.258;21.052;2023-03-01T04:10:10;63.90;;;25.05;;
65996;SDS011;52765;52.258;21.052;2023-03-01T04:12:37;66.18;;;25.20;;
65996;SDS011;52765;52.258;21.052;2023-03-01T04:15:04;58.33;;;24.33;;
65996;SDS011;52765;52.258;21.052;2023-03-01T04:17:45;65.93;;;26.27;;
65996;SDS011;52765;52.258;21.052;2023-03-01T04:20:15;66.20;;;25.15;;
65996;SDS011;52765;52.258;21.052;2023-03-01T04:22:52;60.65;;;24.88;;
65996;SDS011;52765;52.258;21.052;2023-03-01T04:25:22;57.63;;;24.85;;
65996;SDS011;52765;52.258;21.052;2023-03-01T04:27:48;55.55;;;23.55;;
65996;SDS011;52765;52.258;21.052;2023-03-01T04:30:14;65.07;;;24.27;;
65996;SDS011;52765;52.258;21.052;2023-03-01T04:32:40;69.05;;;24.98;;
65996;SDS011;52765;52.258;21.052;2023-03-01T04:35:05;62.55;;;23.35;;
65996;SDS011;52765;52.258;21.052;2023-03-01T04:37:31;61.10;;;24.35;;
65996;SDS011;52765;52.258;21.052;2023-03-01T04:39:57;62.40;;;25.23;;
65996;SDS011;52765;52.258;21.052;2023-03-01T04:42:22;71.30;;;27.13;;
65996;SDS011;52765;52.258;21.052;2023-03-01T04:44:49;59.85;;;24.95;;
65996;SDS011;52765;52.258;21.052;2023-03-01T04:47:16;55.10;;;22.65;;
65996;SDS011;52765;52.258;21.052;2023-03-01T04:49:42;59.00;;;23.75;;
65996;SDS011;52765;52.258;21.052;2023-03-01T04:52:08;61.58;;;24.88;;
65996;SDS011;52765;52.258;21.052;2023-03-01T04:54:34;58.03;;;24.33;;
65996;SDS011;52765;52.258;21.052;2023-03-01T04:57:01;63.92;;;24.33;;
65996;SDS011;52765;52.258;21.052;2023-03-01T04:59:28;56.42;;;23.83;;
65996;SDS011;52765;52.258;21.052;2023-03-01T05:01:54;56.25;;;22.50;;
65996;SDS011;52765;52.258;21.052;2023-03-01T05:04:21;64.18;;;25.27;;
65996;SDS011;52765;52.258;21.052;2023-03-01T05:06:47;66.63;;;25.50;;
65996;SDS011;52765;52.258;21.052;2023-03-01T05:09:13;64.50;;;27.35;;
65996;SDS011;52765;52.258;21.052;2023-03-01T05:11:38;63.17;;;24.75;;
65996;SDS011;52765;52.258;21.052;2023-03-01T05:14:04;67.85;;;25.38;;
65996;SDS011;52765;52.258;21.052;2023-03-01T05:16:31;68.13;;;26.13;;
65996;SDS011;52765;52.258;21.052;2023-03-01T05:18:57;66.57;;;25.88;;
65996;SDS011;52765;52.258;21.052;2023-03-01T05:21:23;59.15;;;25.40;;
65996;SDS011;52765;52.258;21.052;2023-03-01T05:23:49;64.50;;;24.73;;
65996;SDS011;52765;52.258;21.052;2023-03-01T05:26:15;73.22;;;27.83;;
65996;SDS011;52765;52.258;21.052;2023-03-01T05:28:42;64.00;;;26.48;;
65996;SDS011;52765;52.258;21.052;2023-03-01T05:31:08;66.95;;;26.08;;
65996;SDS011;52765;52.258;21.052;2023-03-01T05:33:37;72.32;;;26.85;;
65996;SDS011;52765;52.258;21.052;2023-03-01T05:36:05;64.13;;;26.80;;
65996;SDS011;52765;52.258;21.052;2023-03-01T05:38:32;74.60;;;28.33;;
65996;SDS011;52765;52.258;21.052;2023-03-01T05:40:57;69.10;;;27.60;;
65996;SDS011;52765;52.258;21.052;2023-03-01T05:43:23;71.32;;;29.00;;
65996;SDS011;52765;52.258;21.052;2023-03-01T05:45:48;74.53;;;27.73;;
65996;SDS011;52765;52.258;21.052;2023-03-01T05:48:14;69.00;;;27.33;;
65996;SDS011;52765;52.258;21.052;2023-03-01T05:50:40;66.28;;;26.90;;
65996;SDS011;52765;52.258;21.052;2023-03-01T05:55:37;63.20;;;24.58;;
65996;SDS011;52765;52.258;21.052;2023-03-01T05:58:05;71.95;;;28.30;;
65996;SDS011;52765;52.258;21.052;2023-03-01T06:00:35;63.45;;;26.23;;
65996;SDS011;52765;52.258;21.052;2023-03-01T06:03:01;77.68;;;27.67;;
65996;SDS011;52765;52.258;21.052;2023-03-01T06:05:27;59.60;;;26.13;;
65996;SDS011;52765;52.258;21.052;2023-03-01T06:07:53;66.50;;;26.77;;
65996;SDS011;52765;52.258;21.052;2023-03-01T06:10:19;66.22;;;25.95;;
65996;SDS011;52765;52.258;21.052;2023-03-01T06:12:46;72.18;;;25.90;;
65996;SDS011;52765;52.258;21.052;2023-03-01T06:15:13;63.58;;;26.92;;
65996;SDS011;52765;52.258;21.052;2023-03-01T06:17:41;64.07;;;26.23;;
65996;SDS011;52765;52.258;21.052;2023-03-01T06:20:16;64.47;;;24.98;;
65996;SDS011;52765;52.258;21.052;2023-03-01T06:22:46;64.43;;;25.90;;
65996;SDS011;52765;52.258;21.052;2023-03-01T06:25:13;64.95;;;24.88;;
65996;SDS011;52765;52.258;21.052;2023-03-01T06:27:41;62.65;;;25.55;;
65996;SDS011;52765;52.258;21.052;2023-03-01T06:30:08;65.97;;;25.42;;
65996;SDS011;52765;52.258;21.052;2023-03-01T06:32:35;64.10;;;25.58;;
65996;SDS011;52765;52.258;21.052;2023-03-01T06:35:02;63.38;;;26.65;;
65996;SDS011;52765;52.258;21.052;2023-03-01T06:37:28;61.22;;;25.13;;
65996;SDS011;52765;52.258;21.052;2023-03-01T06:39:54;67.75;;;25.52;;
65996;SDS011;52765;52.258;21.052;2023-03-01T06:42:19;58.63;;;24.45;;
65996;SDS011;52765;52.258;21.052;2023-03-01T06:44:44;65.18;;;24.83;;
65996;SDS011;52765;52.258;21.052;2023-03-01T06:47:10;59.30;;;23.77;;
65996;SDS011;52765;52.258;21.052;2023-03-01T06:49:36;61.92;;;23.58;;
65996;SDS011;52765;52.258;21.052;2023-03-01T06:52:01;59.03;;;24.10;;
65996;SDS011;52765;52.258;21.052;2023-03-01T06:54:28;54.40;;;23.80;;
65996;SDS011;52765;52.258;21.052;2023-03-01T06:56:53;55.10;;;24.23;;
65996;SDS011;52765;52.258;21.052;2023-03-01T06:59:19;59.45;;;23.70;;
65996;SDS011;52765;52.258;21.052;2023-03-01T07:01:44;60.20;;;22.83;;
65996;SDS011;52765;52.258;21.052;2023-03-01T07:04:10;57.05;;;24.83;;
65996;SDS011;52765;52.258;21.052;2023-03-01T07:06:37;57.10;;;23.25;;
65996;SDS011;52765;52.258;21.052;2023-03-01T07:09:03;56.58;;;23.77;;
65996;SDS011;52765;52.258;21.052;2023-03-01T07:11:28;56.03;;;22.23;;
65996;SDS011;52765;52.258;21.052;2023-03-01T07:13:54;58.03;;;22.98;;
65996;SDS011;52765;52.258;21.052;2023-03-01T07:16:22;54.20;;;22.63;;
65996;SDS011;52765;52.258;21.052;2023-03-01T07:18:48;60.53;;;24.20;;
65996;SDS011;52765;52.258;21.052;2023-03-01T07:21:16;57.00;;;25.58;;
65996;SDS011;52765;52.258;21.052;2023-03-01T07:23:41;55.28;;;22.60;;
65996;SDS011;52765;52.258;21.052;2023-03-01T07:26:07;54.90;;;22.73;;
65996;SDS011;52765;52.258;21.052;2023-03-01T07:28:33;46.53;;;22.55;;
65996;SDS011;52765;52.258;21.052;2023-03-01T07:31:04;57.72;;;21.40;;
65996;SDS011;52765;52.258;21.052;2023-03-01T07:33:31;48.33;;;20.35;;
65996;SDS011;52765;52.258;21.052;2023-03-01T07:35:57;53.33;;;21.20;;
65996;SDS011;52765;52.258;21.052;2023-03-01T07:38:24;55.35;;;21.33;;
65996;SDS011;52765;52.258;21.052;2023-03-01T07:40:49;50.05;;;19.58;;
65996;SDS011;52765;52.258;21.052;2023-03-01T07:43:15;40.53;;;19.00;;
65996;SDS011;52765;52.258;21.052;2023-03-01T07:45:40;51.22;;;20.23;;
65996;SDS011;52765;52.258;21.052;2023-03-01T07:48:05;47.05;;;19.65;;
65996;SDS011;52765;52.258;21.052;2023-03-01T07:50:31;48.28;;;19.23;;
65996;SDS011;52765;52.258;21.052;2023-03-01T07:52:56;49.42;;;19.02;;
65996;SDS011;52765;52.258;21.052;2023-03-01T07:55:22;49.63;;;20.50;;
65996;SDS011;52765;52.258;21.052;2023-03-01T07:57:47;45.67;;;19.80;;
65996;SDS011;52765;52.258;21.052;2023-03-01T08:00:13;40.95;;;17.55;;
65996;SDS011;52765;52.258;21.052;2023-03-01T08:02:39;46.67;;;18.60;;
65996;SDS011;52765;52.258;21.052;2023-03-01T08:05:06;51.58;;;20.50;;
65996;SDS011;52765;52.258;21.052;2023-03-01T08:07:33;48.95;;;18.67;;
65996;SDS011;52765;52.258;21.052;2023-03-01T08:09:58;41.60;;;18.73;;
65996;SDS011;52765;52.258;21.052;2023-03-01T08:12:24;42.17;;;18.27;;
65996;SDS011;52765;52.258;21.052;2023-03-01T08:14:49;44.42;;;19.15;;
65996;SDS011;52765;52.258;21.052;2023-03-01T08:17:14;46.75;;;21.42;;
65996;SDS011;52765;52.258;21.052;2023-03-01T08:19:40;37.50;;;16.58;;
65996;SDS011;52765;52.258;21.052;2023-03-01T08:22:05;45.85;;;18.42;;
65996;SDS011;52765;52.258;21.052;2023-03-01T08:24:31;41.33;;;15.93;;
65996;SDS011;52765;52.258;21.052;2023-03-01T08:26:56;33.40;;;16.45;;
65996;SDS011;52765;52.258;21.052;2023-03-01T08:29:22;34.92;;;16.15;;
65996;SDS011;52765;52.258;21.052;2023-03-01T08:31:49;40.35;;;16.70;;
65996;SDS011;52765;52.258;21.052;2023-03-01T08:34:15;34.05;;;16.17;;
65996;SDS011;52765;52.258;21.052;2023-03-01T08:36:43;38.05;;;16.30;;
65996;SDS011;52765;52.258;21.052;2023-03-01T08:39:11;39.97;;;14.77;;
65996;SDS011;52765;52.258;21.052;2023-03-01T08:41:38;33.47;;;15.75;;
65996;SDS011;52765;52.258;21.052;2023-03-01T08:44:04;43.55;;;15.48;;
65996;SDS011;52765;52.258;21.052;2023-03-01T08:46:31;35.50;;;15.45;;
65996;SDS011;52765;52.258;21.052;2023-03-01T08:48:59;32.92;;;14.65;;
65996;SDS011;52765;52.258;21.052;2023-03-01T08:51:25;37.20;;;14.82;;
65996;SDS011;52765;52.258;21.052;2023-03-01T08:53:53;31.95;;;14.50;;
65996;SDS011;52765;52.258;21.052;2023-03-01T08:56:29;34.72;;;14.85;;
65996;SDS011;52765;52.258;21.052;2023-03-01T08:59:00;39.08;;;14.48;;
65996;SDS011;52765;52.258;21.052;2023-03-01T09:02:14;35.08;;;14.50;;
65996;SDS011;52765;52.258;21.052;2023-03-01T09:04:45;34.58;;;13.90;;
65996;SDS011;52765;52.258;21.052;2023-03-01T09:07:10;30.80;;;13.73;;
65996;SDS011;52765;52.258;21.052;2023-03-01T09:09:55;29.80;;;14.07;;
65996;SDS011;52765;52.258;21.052;2023-03-01T09:12:23;31.73;;;14.60;;
65996;SDS011;52765;52.258;21.052;2023-03-01T09:14:55;33.72;;;14.48;;
65996;SDS011;52765;52.258;21.052;2023-03-01T09:17:20;33.38;;;13.88;;
65996;SDS011;52765;52.258;21.052;2023-03-01T09:19:51;31.00;;;14.20;;
65996;SDS011;52765;52.258;21.052;2023-03-01T09:22:22;28.27;;;12.02;;
65996;SDS011;52765;52.258;21.052;2023-03-01T09:25:02;29.73;;;13.15;;
65996;SDS011;52765;52.258;21.052;2023-03-01T09:27:46;31.50;;;13.02;;
65996;SDS011;52765;52.258;21.052;2023-03-01T09:30:11;31.08;;;12.80;;
65996;SDS011;52765;52.258;21.052;2023-03-01T09:32:37;31.63;;;12.85;;
65996;SDS011;52765;52.258;21.052;2023-03-01T09:35:07;29.60;;;12.35;;
65996;SDS011;52765;52.258;21.052;2023-03-01T09:37:34;27.08;;;13.15;;
65996;SDS011;52765;52.258;21.052;2023-03-01T09:40:03;30.05;;;12.48;;
65996;SDS011;52765;52.258;21.052;2023-03-01T09:42:31;25.95;;;11.95;;
65996;SDS011;52765;52.258;21.052;2023-03-01T09:45:02;22.50;;;10.77;;
65996;SDS011;52765;52.258;21.052;2023-03-01T09:47:32;23.63;;;11.65;;
65996;SDS011;52765;52.258;21.052;2023-03-01T09:50:16;26.75;;;12.57;;
65996;SDS011;52765;52.258;21.052;2023-03-01T09:55:14;28.85;;;12.40;;
65996;SDS011;52765;52.258;21.052;2023-03-01T09:58:05;27.42;;;11.25;;
65996;SDS011;52765;52.258;21.052;2023-03-01T10:00:39;28.95;;;11.60;;
65996;SDS011;52765;52.258;21.052;2023-03-01T10:08:55;34.70;;;15.10;;
65996;SDS011;52765;52.258;21.052;2023-03-01T10:11:33;34.78;;;16.02;;
65996;SDS011;52765;52.258;21.052;2023-03-01T10:14:50;50.20;;;16.63;;
65996;SDS011;52765;52.258;21.052;2023-03-01T10:19:29;38.97;;;17.00;;
65996;SDS011;52765;52.258;21.052;2023-03-01T10:21:57;35.33;;;17.27;;
65996;SDS011;52765;52.258;21.052;2023-03-01T10:24:28;32.90;;;15.90;;
65996;SDS011;52765;52.258;21.052;2023-03-01T10:27:08;37.17;;;16.50;;
65996;SDS011;52765;52.258;21.052;2023-03-01T10:30:16;31.60;;;15.20;;
65996;SDS011;52765;52.258;21.052;2023-03-01T10:32:57;36.05;;;16.48;;
65996;SDS011;52765;52.258;21.052;2023-03-01T10:35:24;31.90;;;14.80;;
65996;SDS011;52765;52.258;21.052;2023-03-01T10:40:34;28.20;;;14.05;;
65996;SDS011;52765;52.258;21.052;2023-03-01T10:43:14;30.08;;;14.05;;
65996;SDS011;52765;52.258;21.052;2023-03-01T10:45:39;30.27;;;13.57;;
65996;SDS011;52765;52.258;21.052;2023-03-01T10:50:33;35.15;;;14.90;;
65996;SDS011;52765;52.258;21.052;2023-03-01T10:53:00;32.70;;;14.45;;
65996;SDS011;52765;52.258;21.052;2023-03-01T10:55:34;31.38;;;14.15;;
65996;SDS011;52765;52.258;21.052;2023-03-01T11:01:40;29.02;;;14.35;;
65996;SDS011;52765;52.258;21.052;2023-03-01T11:03:40;28.90;;;13.65;;
65996;SDS011;52765;52.258;21.052;2023-03-01T11:08:45;28.45;;;13.25;;
65996;SDS011;52765;52.258;21.052;2023-03-01T11:11:16;28.05;;;13.90;;
65996;SDS011;52765;52.258;21.052;2023-03-01T11:21:36;28.02;;;13.50;;
65996;SDS011;52765;52.258;21.052;2023-03-01T11:24:05;28.35;;;12.27;;
65996;SDS011;52765;52.258;21.052;2023-03-01T11:26:37;27.08;;;13.18;;
65996;SDS011;52765;52.258;21.052;2023-03-01T11:29:10;24.48;;;12.20;;
65996;SDS011;52765;52.258;21.052;2023-03-01T11:31:42;24.83;;;12.85;;
65996;SDS011;52765;52.258;21.052;2023-03-01T11:34:15;30.20;;;13.10;;
65996;SDS011;52765;52.258;21.052;2023-03-01T11:36:55;27.33;;;12.95;;
65996;SDS011;52765;52.258;21.052;2023-03-01T11:39:27;23.25;;;11.35;;
65996;SDS011;52765;52.258;21.052;2023-03-01T11:42:01;26.02;;;11.60;;
65996;SDS011;52765;52.258;21.052;2023-03-01T11:44:43;26.85;;;11.82;;
65996;SDS011;52765;52.258;21.052;2023-03-01T12:38:48;18.38;;;8.85;;
65996;SDS011;52765;52.258;21.052;2023-03-01T12:41:41;19.05;;;9.95;;
65996;SDS011;52765;52.258;21.052;2023-03-01T12:44:27;23.43;;;10.90;;
65996;SDS011;52765;52.258;21.052;2023-03-01T12:49:31;16.92;;;8.77;;
65996;SDS011;52765;52.258;21.052;2023-03-01T12:54:48;23.52;;;10.20;;
65996;SDS011;52765;52.258;21.052;2023-03-01T12:57:21;19.42;;;9.13;;
65996;SDS011;52765;52.258;21.052;2023-03-01T13:08:45;22.55;;;10.45;;
65996;SDS011;52765;52.258;21.052;2023-03-01T13:11:20;18.40;;;9.45;;
65996;SDS011;52765;52.258;21.052;2023-03-01T13:13:47;21.17;;;9.57;;
65996;SDS011;52765;52.258;21.052;2023-03-01T13:16:20;20.73;;;9.88;;
65996;SDS011;52765;52.258;21.052;2023-03-01T13:19:15;20.70;;;9.95;;
65996;SDS011;52765;52.258;21.052;2023-03-01T13:21:45;21.45;;;10.15;;
65996;SDS011;52765;52.258;21.052;2023-03-01T13:29:43;25.55;;;11.68;;
65996;SDS011;52765;52.258;21.052;2023-03-01T13:32:25;22.35;;;10.75;;
65996;SDS011;52765;52.258;21.052;2023-03-01T13:37:43;26.92;;;12.30;;
65996;SDS011;52765;52.258;21.052;2023-03-01T13:42:55;26.42;;;11.23;;
65996;SDS011;52765;52.258;21.052;2023-03-01T13:47:55;21.60;;;10.98;;
65996;SDS011;52765;52.258;21.052;2023-03-01T13:50:25;21.83;;;11.40;;
65996;SDS011;52765;52.258;21.052;2023-03-01T13:52:55;24.20;;;11.70;;
65996;SDS011;52765;52.258;21.052;2023-03-01T13:58:29;26.85;;;11.98;;
65996;SDS011;52765;52.258;21.052;2023-03-01T14:01:00;26.55;;;11.73;;
65996;SDS011;52765;52.258;21.052;2023-03-01T14:03:28;30.27;;;13.23;;
65996;SDS011;52765;52.258;21.052;2023-03-01T14:08:31;28.90;;;11.70;;
65996;SDS011;52765;52.258;21.052;2023-03-01T14:11:01;22.58;;;12.00;;
65996;SDS011;52765;52.258;21.052;2023-03-01T14:19:04;29.50;;;12.82;;
65996;SDS011;52765;52.258;21.052;2023-03-01T14:21:39;24.95;;;11.50;;
65996;SDS011;52765;52.258;21.052;2023-03-01T14:24:04;24.13;;;11.40;;
65996;SDS011;52765;52.258;21.052;2023-03-01T14:26:30;22.08;;;11.40;;
65996;SDS011;52765;52.258;21.052;2023-03-01T14:28:58;20.65;;;10.93;;
65996;SDS011;52765;52.258;21.052;2023-03-01T14:31:37;20.20;;;10.85;;
65996;SDS011;52765;52.258;21.052;2023-03-01T14:34:04;25.92;;;12.13;;
65996;SDS011;52765;52.258;21.052;2023-03-01T14:36:31;31.13;;;13.25;;
65996;SDS011;52765;52.258;21.052;2023-03-01T14:38:59;32.88;;;12.10;;
65996;SDS011;52765;52.258;21.052;2023-03-01T14:41:30;27.38;;;12.30;;
65996;SDS011;52765;52.258;21.052;2023-03-01T14:44:01;24.05;;;12.38;;
65996;SDS011;52765;52.258;21.052;2023-03-01T14:46:31;27.83;;;15.52;;
65996;SDS011;52765;52.258;21.052;2023-03-01T14:49:05;24.45;;;13.05;;
65996;SDS011;52765;52.258;21.052;2023-03-01T14:51:35;29.33;;;12.77;;
65996;SDS011;52765;52.258;21.052;2023-03-01T14:54:03;24.42;;;12.43;;
65996;SDS011;52765;52.258;21.052;2023-03-01T14:56:43;26.60;;;13.27;;
65996;SDS011;52765;52.258;21.052;2023-03-01T15:01:37;30.42;;;12.77;;
65996;SDS011;52765;52.258;21.052;2023-03-01T15:04:02;23.27;;;12.40;;
65996;SDS011;52765;52.258;21.052;2023-03-01T15:06:29;26.08;;;14.05;;
65996;SDS011;52765;52.258;21.052;2023-03-01T15:08:54;24.67;;;12.27;;
65996;SDS011;52765;52.258;21.052;2023-03-01T15:11:28;27.45;;;13.88;;
65996;SDS011;52765;52.258;21.052;2023-03-01T15:13:55;25.48;;;12.23;;
65996;SDS011;52765;52.258;21.052;2023-03-01T15:16:22;30.98;;;13.02;;
65996;SDS011;52765;52.258;21.052;2023-03-01T15:18:49;26.80;;;14.25;;
65996;SDS011;52765;52.258;21.052;2023-03-01T15:23:53;28.13;;;13.95;;
65996;SDS011;52765;52.258;21.052;2023-03-01T15:26:26;29.85;;;14.15;;
65996;SDS011;52765;52.258;21.052;2023-03-01T15:28:54;28.63;;;13.50;;
65996;SDS011;52765;52.258;21.052;2023-03-01T15:31:26;26.45;;;13.85;;
65996;SDS011;52765;52.258;21.052;2023-03-01T15:34:11;27.85;;;13.52;;
65996;SDS011;52765;52.258;21.052;2023-03-01T15:36:57;26.75;;;13.95;;
65996;SDS011;52765;52.258;21.052;2023-03-01T15:42:07;26.63;;;14.45;;
65996;SDS011;52765;52.258;21.052;2023-03-01T15:44:34;31.67;;;16.73;;
65996;SDS011;52765;52.258;21.052;2023-03-01T15:47:01;34.38;;;17.23;;
65996;SDS011;52765;52.258;21.052;2023-03-01T15:49:46;35.65;;;17.00;;
65996;SDS011;52765;52.258;21.052;2023-03-01T15:52:18;37.78;;;16.92;;
65996;SDS011;52765;52.258;21.052;2023-03-01T15:54:54;39.38;;;16.67;;
65996;SDS011;52765;52.258;21.052;2023-03-01T15:57:23;29.45;;;15.73;;
65996;SDS011;52765;52.258;21.052;2023-03-01T15:59:51;33.17;;;17.42;;
65996;SDS011;52765;52.258;21.052;2023-03-01T16:02:17;31.48;;;15.82;;
65996;SDS011;52765;52.258;21.052;2023-03-01T16:04:45;30.05;;;16.35;;
65996;SDS011;52765;52.258;21.052;2023-03-01T16:07:11;31.35;;;16.50;;
65996;SDS011;52765;52.258;21.052;2023-03-01T16:09:40;31.48;;;15.25;;
65996;SDS011;52765;52.258;21.052;2023-03-01T16:12:08;29.95;;;16.02;;
65996;SDS011;52765;52.258;21.052;2023-03-01T16:14:45;27.25;;;15.27;;
65996;SDS011;52765;52.258;21.052;2023-03-01T16:17:11;28.27;;;15.40;;
65996;SDS011;52765;52.258;21.052;2023-03-01T16:19:37;28.77;;;14.93;;
65996;SDS011;52765;52.258;21.052;2023-03-01T16:22:03;26.13;;;14.27;;
65996;SDS011;52765;52.258;21.052;2023-03-01T16:24:29;22.92;;;13.65;;
65996;SDS011;52765;52.258;21.052;2023-03-01T16:26:55;29.75;;;13.93;;
65996;SDS011;52765;52.258;21.052;2023-03-01T16:29:20;31.88;;;13.23;;
65996;SDS011;52765;52.258;21.052;2023-03-01T16:31:46;29.83;;;13.02;;
65996;SDS011;52765;52.258;21.052;2023-03-01T16:34:12;26.17;;;13.27;;
65996;SDS011;52765;52.258;21.052;2023-03-01T16:36:37;27.27;;;12.43;;
65996;SDS011;52765;52.258;21.052;2023-03-01T16:39:04;26.45;;;11.65;;
65996;SDS011;52765;52.258;21.052;2023-03-01T16:41:31;28.30;;;11.90;;
65996;SDS011;52765;52.258;21.052;2023-03-01T16:43:57;27.05;;;12.20;;
65996;SDS011;52765;52.258;21.052;2023-03-01T16:46:23;28.55;;;12.82;;